createdAt,value
2023-04-25T00:02:17.702Z,17.10
2023-04-25T00:04:54.757Z,17.50
2023-04-25T00:07:27.874Z,17.70
2023-04-25T00:10:03.182Z,17.90
2023-04-25T00:12:36.879Z,17.80
2023-04-25T00:15:10.791Z,17.90
2023-04-25T00:17:44.941Z,17.70
2023-04-25T00:20:18.966Z,17.40
2023-04-25T00:22:52.127Z,17.40
2023-04-25T00:25:27.840Z,17.70
2023-04-25T00:28:01.427Z,18.00
2023-04-25T00:30:35.119Z,18.10
2023-04-25T00:33:10.411Z,18.30
2023-04-25T00:35:44.335Z,18.80
2023-04-25T00:38:17.847Z,19.20
2023-04-25T00:40:52.897Z,19.50
2023-04-25T00:43:25.834Z,19.40
2023-04-25T00:46:00.420Z,20.60
2023-04-25T00:48:33.751Z,21.20
2023-04-25T00:51:07.571Z,22.10
2023-04-25T00:53:41.172Z,22.70
2023-04-25T00:56:16.925Z,22.90
2023-04-25T00:58:50.746Z,22.90
2023-04-25T01:01:24.050Z,23.80
2023-04-25T01:03:58.561Z,24.70
2023-04-25T01:06:32.688Z,24.90
2023-04-25T01:09:07.214Z,25.00
2023-04-25T01:11:42.446Z,25.40
2023-04-25T01:14:16.097Z,25.90
2023-04-25T01:16:51.728Z,25.60
2023-04-25T01:19:25.903Z,24.90
2023-04-25T01:22:01.458Z,24.40
2023-04-25T01:24:37.309Z,23.80
2023-04-25T01:27:11.013Z,23.80
2023-04-25T01:29:44.323Z,23.10
2023-04-25T01:32:18.314Z,23.40
2023-04-25T01:34:51.687Z,23.40
2023-04-25T01:37:28.676Z,22.90
2023-04-25T01:40:02.089Z,22.90
2023-04-25T01:42:35.593Z,23.00
2023-04-25T01:45:10.083Z,22.60
2023-04-25T01:47:45.765Z,22.50
2023-04-25T01:50:19.778Z,22.10
2023-04-25T01:52:55.630Z,21.90
2023-04-25T01:55:29.005Z,21.90
2023-04-25T01:58:11.670Z,21.70
2023-04-25T02:01:08.051Z,21.70
2023-04-25T02:03:50.302Z,21.70
2023-04-25T02:06:31.858Z,21.40
2023-04-25T02:09:07.605Z,21.20
2023-04-25T02:11:45.546Z,21.20
2023-04-25T02:14:33.101Z,21.30
2023-04-25T02:17:18.540Z,21.30
2023-04-25T02:19:52.674Z,21.00
2023-04-25T02:22:25.565Z,20.80
2023-04-25T02:25:00.936Z,20.70
2023-04-25T02:27:34.243Z,20.40
2023-04-25T02:30:07.951Z,20.50
2023-04-25T02:32:41.265Z,20.50
2023-04-25T02:35:15.643Z,20.40
2023-04-25T02:37:48.549Z,20.50
2023-04-25T02:40:30.541Z,20.60
2023-04-25T02:43:05.493Z,20.50
2023-04-25T02:45:40.328Z,20.40
2023-04-25T02:48:13.671Z,20.80
2023-04-25T02:50:46.897Z,21.10
2023-04-25T02:53:20.467Z,21.30
2023-04-25T02:56:00.391Z,21.30
2023-04-25T02:58:33.518Z,21.50
2023-04-25T03:01:07.348Z,21.50
2023-04-25T03:03:40.753Z,22.00
2023-04-25T03:06:14.421Z,22.60
2023-04-25T03:08:48.146Z,22.60
2023-04-25T03:11:24.255Z,22.70
2023-04-25T03:13:57.640Z,23.00
2023-04-25T03:16:30.564Z,23.50
2023-04-25T03:19:03.442Z,24.20
2023-04-25T03:21:38.079Z,24.70
2023-04-25T03:24:13.413Z,24.90
2023-04-25T03:26:48.329Z,25.50
2023-04-25T03:29:22.256Z,26.10
2023-04-25T03:31:56.063Z,25.70
2023-04-25T03:34:29.852Z,25.50
2023-04-25T03:37:04.427Z,25.50
2023-04-25T03:39:42.603Z,24.90
2023-04-25T03:42:17.350Z,25.20
2023-04-25T03:44:51.277Z,25.50
2023-04-25T03:47:24.189Z,25.40
2023-04-25T03:49:57.550Z,26.00
2023-04-25T03:52:30.886Z,26.30
2023-04-25T03:55:04.213Z,26.10
2023-04-25T03:57:38.813Z,25.80
2023-04-25T04:00:12.788Z,25.50
2023-04-25T04:02:48.857Z,25.30
2023-04-25T04:05:45.523Z,24.80
2023-04-25T04:08:19.204Z,24.90
2023-04-25T04:10:52.696Z,24.90
2023-04-25T04:13:27.683Z,24.50
2023-04-25T04:16:01.244Z,24.40
2023-04-25T04:18:36.038Z,24.20
2023-04-25T04:21:09.294Z,24.20
2023-04-25T04:23:45.912Z,24.10
2023-04-25T04:26:21.082Z,24.10
2023-04-25T04:29:06.867Z,23.80
2023-04-25T04:32:00.504Z,24.30
2023-04-25T04:34:33.691Z,24.70
2023-04-25T04:37:07.583Z,24.20
2023-04-25T04:39:42.439Z,23.90
2023-04-25T04:42:35.904Z,23.90
2023-04-25T04:45:21.103Z,23.90
2023-04-25T04:48:16.592Z,24.10
2023-04-25T04:54:06.172Z,24.20
2023-04-25T04:57:06.496Z,24.40
2023-04-25T04:59:50.298Z,24.50
2023-04-25T05:02:43.699Z,24.50
2023-04-25T05:05:42.479Z,24.50
2023-04-25T05:08:18.964Z,24.50
2023-04-25T05:11:03.179Z,24.40
2023-04-25T05:13:45.181Z,24.30
2023-04-25T05:16:33.211Z,24.40
2023-04-25T05:19:26.030Z,24.50
2023-04-25T05:22:16.479Z,24.20
2023-04-25T05:25:09.885Z,23.80
2023-04-25T05:28:12.093Z,23.60
2023-04-25T05:31:12.097Z,23.50
2023-04-25T05:33:55.497Z,23.70
2023-04-25T05:36:35.223Z,24.00
2023-04-25T05:39:09.264Z,23.90
2023-04-25T05:42:02.157Z,23.90
2023-04-25T05:44:53.831Z,23.90
2023-04-25T05:47:40.835Z,24.00
2023-04-25T05:50:20.926Z,23.70
2023-04-25T05:53:05.003Z,23.20
2023-04-25T05:55:49.352Z,23.50
2023-04-25T05:58:31.474Z,23.40
2023-04-25T06:01:07.340Z,23.70
2023-04-25T06:03:40.892Z,23.60
2023-04-25T06:06:16.273Z,23.50
2023-04-25T06:08:52.863Z,23.40
2023-04-25T06:11:26.528Z,23.40
2023-04-25T06:13:59.906Z,23.60
2023-04-25T06:16:33.410Z,23.70
2023-04-25T06:19:06.823Z,23.40
2023-04-25T06:21:40.765Z,23.20
2023-04-25T06:24:18.794Z,23.10
2023-04-25T06:26:52.025Z,23.10
2023-04-25T06:29:25.518Z,23.40
2023-04-25T06:31:59.318Z,23.50
2023-04-25T06:34:33.011Z,23.50
2023-04-25T06:37:07.215Z,23.60
2023-04-25T06:39:42.563Z,23.50
2023-04-25T06:42:19.225Z,23.50
2023-04-25T06:44:58.932Z,23.70
2023-04-25T06:47:38.454Z,23.80
2023-04-25T06:50:14.449Z,24.00
2023-04-25T06:52:48.327Z,24.10
2023-04-25T06:55:23.513Z,23.90
2023-04-25T06:58:18.534Z,24.00
2023-04-25T07:00:57.986Z,24.00
2023-04-25T07:03:32.929Z,24.00
2023-04-25T07:06:11.663Z,23.80
2023-04-25T07:08:45.827Z,23.40
2023-04-25T07:11:20.527Z,23.50
2023-04-25T07:13:55.158Z,23.60
2023-04-25T07:16:29.106Z,23.60
2023-04-25T07:19:02.258Z,23.50
2023-04-25T07:21:36.622Z,23.50
2023-04-25T07:24:11.408Z,23.60
2023-04-25T07:26:51.027Z,23.90
2023-04-25T07:29:40.191Z,23.80
2023-04-25T07:32:14.845Z,23.90
2023-04-25T07:34:48.918Z,23.90
2023-04-25T07:37:22.415Z,23.70
2023-04-25T07:40:07.728Z,23.70
2023-04-25T07:42:42.741Z,23.70
2023-04-25T07:45:17.645Z,23.60
2023-04-25T07:47:52.061Z,23.70
2023-04-25T07:50:26.069Z,23.50
2023-04-25T07:52:59.905Z,23.50
2023-04-25T07:55:42.147Z,23.40
2023-04-25T07:58:28.269Z,23.60
2023-04-25T08:01:05.290Z,23.80
2023-04-25T08:03:42.849Z,23.90
2023-04-25T08:06:29.694Z,23.80
2023-04-25T08:09:11.859Z,23.90
2023-04-25T08:11:48.689Z,23.90
2023-04-25T08:14:29.418Z,24.00
2023-04-25T08:17:04.749Z,23.90
2023-04-25T08:19:40.615Z,23.90
2023-04-25T08:22:18.880Z,23.80
2023-04-25T08:24:59.861Z,23.80
2023-04-25T08:27:33.301Z,24.00
2023-04-25T08:30:08.998Z,24.20
2023-04-25T08:32:45.257Z,24.30
2023-04-25T08:35:32.828Z,24.40
2023-04-25T08:38:07.232Z,24.30
2023-04-25T08:40:45.002Z,24.20
2023-04-25T08:43:26.155Z,24.20
2023-04-25T08:46:05.710Z,24.00
2023-04-25T08:49:01.944Z,24.10
2023-04-25T08:51:39.177Z,24.20
2023-04-25T08:54:30.930Z,24.50
2023-04-25T08:57:10.099Z,24.40
2023-04-25T08:59:48.043Z,24.30
2023-04-25T09:02:24.589Z,24.40
2023-04-25T09:05:00.287Z,24.40
2023-04-25T09:07:33.430Z,24.40
2023-04-25T09:10:07.328Z,24.50
2023-04-25T09:12:43.666Z,24.40
2023-04-25T09:15:20.930Z,24.50
2023-04-25T09:18:30.724Z,24.50
2023-04-25T09:21:14.707Z,24.60
2023-04-25T09:23:53.848Z,24.60
2023-04-25T09:26:27.433Z,24.50
2023-04-25T09:29:11.496Z,24.70
2023-04-25T09:31:47.622Z,24.60
2023-04-25T09:34:23.505Z,24.40
2023-04-25T09:37:01.583Z,24.40
2023-04-25T09:39:58.936Z,24.20
2023-04-25T09:42:37.183Z,24.10
2023-04-25T09:45:12.121Z,24.10
2023-04-25T09:47:48.370Z,24.10
2023-04-25T09:50:29.082Z,24.10
2023-04-25T09:53:12.586Z,24.20
2023-04-25T09:56:10.867Z,24.00
2023-04-25T09:58:44.738Z,23.90
2023-04-25T10:01:18.570Z,24.00
2023-04-25T10:04:11.254Z,24.00
2023-04-25T10:07:11.124Z,24.00
2023-04-25T10:09:45.157Z,24.10
2023-04-25T10:12:19.221Z,24.10
2023-04-25T10:14:53.146Z,24.10
2023-04-25T10:17:27.612Z,24.10
2023-04-25T10:20:02.244Z,24.10
2023-04-25T10:22:43.311Z,23.90
2023-04-25T10:25:17.998Z,23.80
2023-04-25T10:27:53.685Z,23.80
2023-04-25T10:30:27.420Z,23.80
2023-04-25T10:33:03.007Z,23.80
2023-04-25T10:35:38.879Z,23.70
2023-04-25T10:38:19.205Z,23.80
2023-04-25T10:41:10.555Z,23.80
2023-04-25T10:43:44.970Z,23.60
2023-04-25T10:46:28.989Z,23.60
2023-04-25T10:49:04.613Z,23.50
2023-04-25T10:51:54.262Z,23.50
2023-04-25T10:54:30.695Z,23.50
2023-04-25T10:57:04.602Z,23.40
2023-04-25T10:59:37.876Z,23.30
2023-04-25T11:02:17.750Z,23.20
2023-04-25T11:04:54.414Z,23.20
2023-04-25T11:07:39.755Z,23.10
2023-04-25T11:10:16.101Z,23.10
2023-04-25T11:12:52.550Z,23.00
2023-04-25T11:15:25.587Z,22.90
2023-04-25T11:17:59.205Z,22.80
2023-04-25T11:20:32.683Z,22.80
2023-04-25T11:23:06.403Z,22.70
2023-04-25T11:25:42.902Z,22.60
2023-04-25T11:28:16.229Z,22.50
2023-04-25T11:30:56.486Z,22.50
2023-04-25T11:33:31.181Z,22.40
2023-04-25T11:36:04.894Z,22.40
2023-04-25T11:38:38.891Z,22.30
2023-04-25T11:41:14.330Z,22.20
2023-04-25T11:43:50.453Z,22.20
2023-04-25T11:46:24.385Z,22.10
2023-04-25T11:49:00.588Z,22.10
2023-04-25T11:51:33.764Z,22.10
2023-04-25T11:54:06.688Z,22.10
2023-04-25T11:56:41.422Z,22.00
2023-04-25T11:59:14.711Z,21.90
2023-04-25T12:01:54.274Z,21.90
2023-04-25T12:04:28.586Z,21.90
2023-04-25T12:07:03.558Z,21.90
2023-04-25T12:09:39.104Z,21.90
2023-04-25T12:12:19.952Z,21.80
2023-04-25T12:14:55.676Z,21.80
2023-04-25T12:17:28.681Z,21.80
2023-04-25T12:20:02.046Z,21.80
2023-04-25T12:22:35.397Z,21.80
2023-04-25T12:25:10.144Z,21.70
2023-04-25T12:27:46.214Z,21.70
2023-04-25T12:30:19.834Z,21.70
2023-04-25T12:32:54.159Z,21.70
2023-04-25T12:35:26.974Z,21.60
2023-04-25T12:38:00.367Z,21.60
2023-04-25T12:40:33.846Z,21.60
2023-04-25T12:43:09.377Z,21.60
2023-04-25T12:45:42.964Z,21.60
2023-04-25T12:48:17.321Z,21.50
2023-04-25T12:50:52.069Z,21.60
2023-04-25T12:53:27.633Z,21.60
2023-04-25T12:56:00.949Z,21.60
2023-04-25T12:58:37.133Z,21.60
2023-04-25T13:01:11.733Z,21.60
2023-04-25T13:03:46.629Z,21.60
2023-04-25T13:06:20.540Z,21.60
2023-04-25T13:08:54.216Z,21.50
2023-04-25T13:11:28.108Z,21.50
2023-04-25T13:14:03.922Z,21.50
2023-04-25T13:16:36.814Z,21.40
2023-04-25T13:19:14.384Z,21.40
2023-04-25T13:21:47.489Z,21.40
2023-04-25T13:24:20.985Z,21.40
2023-04-25T13:26:54.347Z,21.30
2023-04-25T13:29:45.801Z,21.30
2023-04-25T13:32:19.608Z,21.30
2023-04-25T13:34:52.528Z,21.40
2023-04-25T13:37:26.931Z,21.40
2023-04-25T13:40:00.994Z,21.30
2023-04-25T13:42:34.179Z,21.30
2023-04-25T13:45:09.287Z,21.30
2023-04-25T13:47:42.551Z,21.30
2023-04-25T13:50:18.127Z,21.20
2023-04-25T13:52:55.084Z,21.20
2023-04-25T13:55:28.310Z,21.20
2023-04-25T13:58:02.251Z,21.20
2023-04-25T14:00:37.945Z,21.20
2023-04-25T14:03:11.394Z,21.20
2023-04-25T14:05:44.505Z,21.20
2023-04-25T14:08:18.047Z,21.10
2023-04-25T14:10:50.952Z,21.10
2023-04-25T14:13:24.660Z,21.10
2023-04-25T14:16:01.235Z,21.00
2023-04-25T14:18:34.860Z,20.90
2023-04-25T14:21:09.018Z,20.90
2023-04-25T14:23:43.116Z,20.90
2023-04-25T14:26:16.022Z,20.90
2023-04-25T14:28:49.170Z,20.80
2023-04-25T14:31:24.147Z,20.80
2023-04-25T14:33:59.151Z,20.80
2023-04-25T14:36:34.371Z,20.80
2023-04-25T14:39:09.173Z,20.70
2023-04-25T14:41:42.361Z,20.70
2023-04-25T14:44:16.102Z,20.70
2023-04-25T14:46:54.133Z,20.70
2023-04-25T14:49:27.843Z,20.70
2023-04-25T14:52:06.194Z,20.60
2023-04-25T14:54:39.791Z,20.60
2023-04-25T14:57:13.972Z,20.60
2023-04-25T14:59:47.649Z,20.60
2023-04-25T15:02:23.362Z,20.60
2023-04-25T15:04:56.529Z,20.60
2023-04-25T15:07:30.506Z,20.50
2023-04-25T15:10:05.025Z,20.50
2023-04-25T15:12:39.402Z,20.60
2023-04-25T15:15:22.738Z,20.50
2023-04-25T15:18:00.529Z,20.50
2023-04-25T15:20:35.026Z,20.50
2023-04-25T15:23:09.057Z,20.50
2023-04-25T15:25:41.933Z,20.50
2023-04-25T15:28:16.450Z,20.50
2023-04-25T15:30:52.250Z,20.50
2023-04-25T15:33:36.813Z,20.50
2023-04-25T15:36:12.492Z,20.40
2023-04-25T15:38:48.914Z,20.40
2023-04-25T15:41:23.870Z,20.40
2023-04-25T15:43:58.542Z,20.40
2023-04-25T15:46:33.024Z,20.40
2023-04-25T15:49:08.397Z,20.40
2023-04-25T15:51:41.940Z,20.40
2023-04-25T15:54:15.382Z,20.40
2023-04-25T15:56:48.705Z,20.30
2023-04-25T15:59:21.454Z,20.30
2023-04-25T16:01:55.638Z,20.30
2023-04-25T16:04:36.530Z,20.40
2023-04-25T16:07:10.647Z,20.40
2023-04-25T16:09:45.557Z,20.40
2023-04-25T16:12:20.426Z,20.40
2023-04-25T16:14:54.219Z,20.40
2023-04-25T16:17:27.477Z,20.40
2023-04-25T16:20:03.124Z,20.50
2023-04-25T16:22:36.425Z,20.40
2023-04-25T16:25:09.731Z,20.40
2023-04-25T16:27:42.575Z,20.40
2023-04-25T16:30:16.846Z,20.30
2023-04-25T16:32:50.226Z,20.30
2023-04-25T16:35:26.071Z,20.30
2023-04-25T16:37:59.701Z,20.20
2023-04-25T16:40:32.585Z,20.20
2023-04-25T16:43:05.764Z,20.20
2023-04-25T16:45:38.722Z,20.10
2023-04-25T16:48:12.130Z,20.10
2023-04-25T16:50:47.668Z,20.10
2023-04-25T16:53:22.138Z,20.00
2023-04-25T16:55:55.786Z,20.10
2023-04-25T16:58:30.505Z,20.00
2023-04-25T17:01:03.401Z,19.90
2023-04-25T17:03:36.428Z,19.90
2023-04-25T17:06:11.716Z,19.90
2023-04-25T17:08:45.115Z,20.00
2023-04-25T17:11:18.418Z,20.00
2023-04-25T17:13:51.681Z,20.00
2023-04-25T17:16:26.163Z,20.00
2023-04-25T17:19:01.029Z,20.00
2023-04-25T17:21:36.788Z,20.10
2023-04-25T17:24:11.406Z,20.20
2023-04-25T17:26:46.794Z,20.20
2023-04-25T17:29:23.199Z,20.10
2023-04-25T17:31:58.547Z,20.00
2023-04-25T17:34:33.210Z,20.10
2023-04-25T17:37:08.573Z,20.10
2023-04-25T17:39:41.658Z,20.10
2023-04-25T17:42:15.765Z,20.10
2023-04-25T17:44:49.461Z,20.10
2023-04-25T17:47:22.725Z,20.10
2023-04-25T17:49:56.236Z,20.00
2023-04-25T17:52:31.187Z,20.00
2023-04-25T17:55:04.718Z,20.00
2023-04-25T17:57:37.883Z,20.00
2023-04-25T18:00:12.868Z,19.90
2023-04-25T18:02:47.097Z,20.00
2023-04-25T18:05:20.820Z,20.00
2023-04-25T18:07:56.736Z,20.00
2023-04-25T18:10:30.176Z,20.00
2023-04-25T18:13:03.287Z,20.10
2023-04-25T18:15:36.477Z,20.10
2023-04-25T18:18:16.398Z,20.00
2023-04-25T18:20:49.737Z,20.10
2023-04-25T18:23:25.139Z,20.10
2023-04-25T18:25:58.503Z,20.20
2023-04-25T18:28:32.579Z,20.20
2023-04-25T18:31:06.306Z,20.10
2023-04-25T18:33:39.785Z,20.10
2023-04-25T18:36:13.296Z,20.10
2023-04-25T18:38:52.705Z,20.10
2023-04-25T18:44:09.101Z,20.10
2023-04-25T18:46:45.377Z,20.10
2023-04-25T18:49:18.373Z,20.10
2023-04-25T18:51:51.469Z,20.00
2023-04-25T18:54:26.767Z,20.00
2023-04-25T18:57:02.135Z,19.90
2023-04-25T18:59:35.218Z,19.90
2023-04-25T19:02:08.515Z,20.00
2023-04-25T19:04:41.942Z,20.00
2023-04-25T19:07:15.981Z,20.10
2023-04-25T19:09:51.255Z,20.00
2023-04-25T19:12:24.955Z,20.10
2023-04-25T19:14:57.857Z,20.00
2023-04-25T19:17:30.784Z,20.10
2023-04-25T19:20:03.918Z,19.90
2023-04-25T19:22:37.436Z,20.00
2023-04-25T19:25:14.052Z,20.00
2023-04-25T19:27:47.815Z,19.90
2023-04-25T19:30:21.155Z,19.90
2023-04-25T19:32:54.559Z,19.90
2023-04-25T19:35:32.181Z,19.80
2023-04-25T19:38:05.082Z,19.80
2023-04-25T19:40:40.294Z,19.80
2023-04-25T19:43:13.726Z,19.70
2023-04-25T19:45:47.739Z,19.60
2023-04-25T19:48:21.133Z,19.70
2023-04-25T19:50:54.714Z,19.70
2023-04-25T19:53:28.797Z,19.70
2023-04-25T19:56:07.405Z,19.70
2023-04-25T19:58:40.709Z,19.90
2023-04-25T20:01:14.065Z,19.90
2023-04-25T20:03:49.986Z,19.80
2023-04-25T20:06:23.296Z,19.70
2023-04-25T20:08:59.223Z,19.70
2023-04-25T20:11:34.343Z,19.80
2023-04-25T20:14:07.490Z,19.80
2023-04-25T20:16:41.113Z,19.80
2023-04-25T20:19:14.840Z,19.80
2023-04-25T20:21:48.369Z,19.90
2023-04-25T20:24:21.961Z,19.90
2023-04-25T20:26:57.475Z,19.90
2023-04-25T20:29:31.050Z,19.90
2023-04-25T20:32:05.148Z,19.80
2023-04-25T20:34:38.611Z,19.80
2023-04-25T20:37:12.306Z,19.80
2023-04-25T20:39:46.021Z,19.80
2023-04-25T20:42:21.587Z,19.70
2023-04-25T20:44:55.245Z,19.80
2023-04-25T20:47:28.846Z,19.80
2023-04-25T20:50:01.723Z,19.80
2023-04-25T20:52:35.105Z,19.80
2023-04-25T20:55:08.872Z,19.80
2023-04-25T20:57:44.082Z,19.80
2023-04-25T21:00:21.838Z,19.80
2023-04-25T21:02:55.528Z,19.90
2023-04-25T21:05:28.939Z,19.80
2023-04-25T21:08:01.980Z,19.80
2023-04-25T21:10:37.200Z,19.80
2023-04-25T21:13:13.436Z,19.70
2023-04-25T21:15:47.094Z,19.70
2023-04-25T21:18:20.389Z,19.80
2023-04-25T21:20:53.759Z,19.80
2023-04-25T21:23:27.310Z,19.80
2023-04-25T21:26:00.721Z,19.70
2023-04-25T21:28:35.409Z,19.80
2023-04-25T21:31:08.798Z,19.80
2023-04-25T21:33:42.003Z,19.80
2023-04-25T21:36:14.989Z,19.70
2023-04-25T21:38:48.533Z,19.70
2023-04-25T21:41:22.193Z,19.60
2023-04-25T21:43:57.739Z,19.60
2023-04-25T21:46:31.149Z,19.60
2023-04-25T21:49:04.116Z,19.40
2023-04-25T21:51:36.955Z,19.30
2023-04-25T21:54:10.319Z,19.10
2023-04-25T21:56:43.705Z,19.10
2023-04-25T21:59:18.715Z,19.30
2023-04-25T22:01:52.250Z,19.30
2023-04-25T22:04:26.121Z,19.30
2023-04-25T22:06:59.427Z,19.40
2023-04-25T22:09:34.754Z,19.40
2023-04-25T22:12:15.159Z,19.40
2023-04-25T22:14:51.158Z,19.30
2023-04-25T22:17:27.094Z,19.30
2023-04-25T22:20:02.927Z,19.20
2023-04-25T22:22:36.363Z,19.30
2023-04-25T22:25:10.162Z,19.30
2023-04-25T22:27:45.229Z,19.30
2023-04-25T22:30:21.196Z,19.40
2023-04-25T22:32:54.880Z,19.30
2023-04-25T22:35:28.422Z,19.30
2023-04-25T22:38:01.732Z,19.20
2023-04-25T22:40:34.992Z,19.20
2023-04-25T22:43:08.745Z,19.20
2023-04-25T22:45:44.199Z,19.20
2023-04-25T22:48:17.145Z,19.30
2023-04-25T22:50:50.727Z,19.30
2023-04-25T22:53:24.060Z,19.40
2023-04-25T22:56:01.220Z,19.50
2023-04-25T22:58:35.517Z,19.40
2023-04-25T23:01:11.574Z,19.40
2023-04-25T23:03:45.126Z,19.40
2023-04-25T23:06:18.859Z,19.60
2023-04-25T23:08:52.882Z,19.50
2023-04-25T23:11:26.380Z,19.40
2023-04-25T23:13:59.992Z,19.40
2023-04-25T23:16:34.681Z,19.40
2023-04-25T23:19:07.841Z,19.40
2023-04-25T23:21:41.154Z,19.40
2023-04-25T23:24:14.436Z,19.40
2023-04-25T23:26:47.898Z,19.50
2023-04-25T23:29:21.493Z,19.60
2023-04-25T23:31:56.270Z,19.80
2023-04-25T23:34:29.450Z,19.80
2023-04-25T23:37:03.248Z,19.90
2023-04-25T23:39:36.392Z,19.90
2023-04-25T23:42:09.877Z,20.00
2023-04-25T23:44:44.312Z,20.00
2023-04-25T23:47:20.578Z,19.70
2023-04-25T23:49:54.303Z,19.70
2023-04-25T23:52:27.732Z,19.80
2023-04-25T23:55:01.129Z,20.00
2023-04-25T23:57:34.975Z,19.90
